SLCO/CIJ METAR and TAF weather

Enter ICAO airport designator
Station Type Date Time Source
SLCO METAR 2021/05/11 18:00 UTC NOAA

SLCO 111800Z 16005KT 8000 VCSH SCT025 FEW030CB SCT080 BKN200 26/25 Q1012


Station Type Date Time Source
SLCO Decoded METAR 2021/05/11 18:00 UTC NOAA

Cobija, Bolivia (SLCO) 11-02S 068-47W 260M
May 11, 2021 - 02:00 PM EDT / 2021.05.11 1800 UTC
Wind: from the SSE (160 degrees) at 6 MPH (5 KT):0
Visibility: 4 mile(s):0
Sky conditions: mostly cloudy
Weather: showers in the vicinity; Cumulonimbus clouds observed
Temperature: 78 F (26 C)
Dew Point: 77 F (25 C)
Relative Humidity: 94%
Pressure (altimeter): 29.88 in. Hg (1012 hPa)
ob: SLCO 111800Z 16005KT 8000 VCSH SCT025 FEW030CB SCT080 BKN200 26/25 Q1012
cycle: 18

Station Type Date Time Source
SLCO TAF 2021/05/10 12:33 UTC NOAA

TAF TAF SLCO 101000Z 1012/1112 00000KT 9999 FEW023 TX31/1019Z TN20/1110Z
TEMPO 1017/1021 15010KT SCT080

Example: see airport list